Time;durP1;ratioP1;P1;durP2;ratioP2;P2;SDS_P1;SDS_P2;PMS_P1;PMS_P2;Temp;Humidity;BMP_temperature;BMP_pressure;BME280_temperature;BME280_humidity;BME280_pressure;Samples;Min_cycle;Max_cycle;Signal;HPM_P1;HPM_P2
2023/07/13 00:00:19;;;;;;;1.30;0.90;;;;;;;;;;5093778;28;20052;-82
2023/07/13 00:02:46;;;;;;;1.33;0.95;;;;;;;;;;5092358;28;20044;-82
2023/07/13 00:05:13;;;;;;;2.05;0.70;;;;;;;;;;5093828;28;20076;-83
2023/07/13 00:07:41;;;;;;;0.73;0.73;;;;;;;;;;5092390;28;20060;-82
2023/07/13 00:10:09;;;;;;;1.10;0.68;;;;;;;;;;5092401;28;20044;-82
2023/07/13 00:12:37;;;;;;;1.42;0.73;;;;;;;;;;5093458;28;20047;-81
2023/07/13 00:15:06;;;;;;;2.35;0.90;;;;;;;;;;5093540;28;20488;-82
2023/07/13 00:17:34;;;;;;;1.23;0.80;;;;;;;;;;5091975;28;20102;-82
2023/07/13 00:20:02;;;;;;;2.30;0.90;;;;;;;;;;5093534;28;20051;-82
2023/07/13 00:22:29;;;;;;;4.07;1.02;;;;;;;;;;5092963;28;20640;-83
2023/07/13 00:24:56;;;;;;;3.75;0.98;;;;;;;;;;5092202;28;20127;-82
2023/07/13 00:27:25;;;;;;;1.48;0.90;;;;;;;;;;5092214;28;20562;-82
2023/07/13 00:29:53;;;;;;;1.20;1.10;;;;;;;;;;5093224;28;20093;-82
2023/07/13 00:32:20;;;;;;;0.77;0.77;;;;;;;;;;5091786;28;20048;-81
2023/07/13 00:34:48;;;;;;;1.35;1.02;;;;;;;;;;5093257;28;20059;-82
2023/07/13 00:37:15;;;;;;;3.38;0.95;;;;;;;;;;5091831;28;20044;-82
2023/07/13 00:39:42;;;;;;;1.38;0.85;;;;;;;;;;5091921;28;20514;-82
2023/07/13 00:42:09;;;;;;;6.97;1.67;;;;;;;;;;5091396;28;20084;-82
2023/07/13 00:44:37;;;;;;;2.05;0.90;;;;;;;;;;5091650;28;20083;-82
2023/07/13 00:47:04;;;;;;;1.10;0.80;;;;;;;;;;5092866;28;20047;-82
2023/07/13 00:49:32;;;;;;;1.08;0.98;;;;;;;;;;5092729;28;20048;-81
2023/07/13 00:52:06;;;;;;;2.05;0.75;;;;;;;;;;5092834;28;20044;-82
2023/07/13 00:54:36;;;;;;;1.92;1.00;;;;;;;;;;5091649;28;20142;-81
2023/07/13 00:57:06;;;;;;;0.80;0.80;;;;;;;;;;5091574;28;20044;-82
2023/07/13 00:59:34;;;;;;;1.17;0.68;;;;;;;;;;5091606;28;20086;-82
2023/07/13 01:02:02;;;;;;;1.77;0.77;;;;;;;;;;5091368;28;20097;-82
2023/07/13 01:04:29;;;;;;;2.50;0.60;;;;;;;;;;5091560;28;20093;-82
2023/07/13 01:06:57;;;;;;;1.33;0.90;;;;;;;;;;5092649;28;20088;-82
2023/07/13 01:09:26;;;;;;;1.60;1.13;;;;;;;;;;5091449;28;20458;-82
2023/07/13 01:11:53;;;;;;;2.08;0.88;;;;;;;;;;5090419;28;20044;-82
2023/07/13 01:14:21;;;;;;;1.35;0.77;;;;;;;;;;5092794;28;20206;-82
2023/07/13 01:16:48;;;;;;;2.13;1.00;;;;;;;;;;5091436;28;20040;-82
2023/07/13 01:19:35;;;;;;;4.68;1.30;;;;;;;;;;5092481;28;20058;-82
2023/07/13 01:22:04;;;;;;;2.38;1.10;;;;;;;;;;5092268;28;20122;-82
2023/07/13 01:24:31;;;;;;;1.30;0.80;;;;;;;;;;5092384;28;20117;-82
2023/07/13 01:26:59;;;;;;;1.98;0.88;;;;;;;;;;5092414;28;20083;-82
2023/07/13 01:29:26;;;;;;;3.10;0.98;;;;;;;;;;5091166;28;20060;-83
2023/07/13 01:31:53;;;;;;;1.17;0.80;;;;;;;;;;5091264;28;20048;-83
2023/07/13 01:34:20;;;;;;;1.35;0.90;;;;;;;;;;5092342;28;20048;-83
2023/07/13 01:36:48;;;;;;;3.83;1.33;;;;;;;;;;5091114;28;20044;-82
2023/07/13 01:39:16;;;;;;;2.88;1.00;;;;;;;;;;5092277;28;20488;-81
2023/07/13 01:41:44;;;;;;;0.77;0.75;;;;;;;;;;5094436;28;20044;-82
2023/07/13 01:44:11;;;;;;;2.92;0.98;;;;;;;;;;5095344;28;20052;-81
2023/07/13 01:46:38;;;;;;;4.15;1.00;;;;;;;;;;5095222;28;20127;-81
2023/07/13 01:49:05;;;;;;;1.13;1.02;;;;;;;;;;5096208;28;20048;-82
2023/07/13 01:51:33;;;;;;;4.47;1.15;;;;;;;;;;5094777;28;20446;-82
2023/07/13 01:54:00;;;;;;;3.75;0.80;;;;;;;;;;5096095;28;20441;-81
2023/07/13 01:56:27;;;;;;;2.10;0.98;;;;;;;;;;5096180;28;20079;-82
2023/07/13 01:58:54;;;;;;;1.70;0.80;;;;;;;;;;5095137;28;20044;-82
2023/07/13 02:01:22;;;;;;;3.55;1.40;;;;;;;;;;5094617;28;20079;-82
2023/07/13 02:03:49;;;;;;;1.83;0.82;;;;;;;;;;5095335;28;20136;-82
2023/07/13 02:06:16;;;;;;;1.30;1.08;;;;;;;;;;5095492;28;20078;-82
2023/07/13 02:08:44;;;;;;;1.10;1.10;;;;;;;;;;5095441;28;20044;-81
2023/07/13 02:11:11;;;;;;;3.17;0.85;;;;;;;;;;5094331;28;20459;-81
2023/07/13 02:13:38;;;;;;;1.20;0.95;;;;;;;;;;5094387;28;20083;-81
2023/07/13 02:16:06;;;;;;;1.27;1.15;;;;;;;;;;5094335;28;20052;-81
2023/07/13 02:18:33;;;;;;;2.85;1.20;;;;;;;;;;5095311;28;20123;-82
2023/07/13 02:21:01;;;;;;;4.82;1.00;;;;;;;;;;5095180;28;20044;-81
2023/07/13 02:23:28;;;;;;;1.70;1.08;;;;;;;;;;5093986;28;20044;-81
2023/07/13 02:25:56;;;;;;;3.35;1.02;;;;;;;;;;5094453;28;20051;-82
2023/07/13 02:28:23;;;;;;;1.27;1.02;;;;;;;;;;5093899;28;20121;-82
2023/07/13 02:30:51;;;;;;;1.35;0.90;;;;;;;;;;5093984;28;20059;-81
2023/07/13 02:33:18;;;;;;;2.75;1.15;;;;;;;;;;5093860;28;20043;-82
2023/07/13 02:35:45;;;;;;;2.03;1.20;;;;;;;;;;5095146;28;20084;-82
2023/07/13 02:38:12;;;;;;;1.70;0.90;;;;;;;;;;5093914;28;20066;-81
2023/07/13 02:40:39;;;;;;;4.88;1.08;;;;;;;;;;5093796;28;20044;-82
2023/07/13 02:43:07;;;;;;;2.47;1.00;;;;;;;;;;5094815;28;20056;-81
2023/07/13 02:45:34;;;;;;;2.53;1.17;;;;;;;;;;5094748;28;20051;-82
2023/07/13 02:48:01;;;;;;;1.88;0.95;;;;;;;;;;5093675;28;20446;-82
2023/07/13 02:50:28;;;;;;;2.97;1.10;;;;;;;;;;5094643;28;20571;-82
2023/07/13 02:52:56;;;;;;;2.33;0.98;;;;;;;;;;5092447;28;20080;-82
2023/07/13 02:55:23;;;;;;;2.95;1.17;;;;;;;;;;5093508;28;20086;-82
2023/07/13 02:57:50;;;;;;;4.15;1.00;;;;;;;;;;5094773;28;20465;-82
2023/07/13 03:00:18;;;;;;;1.98;1.10;;;;;;;;;;5093331;28;20055;-82
2023/07/13 03:02:45;;;;;;;2.30;0.90;;;;;;;;;;5093281;28;20073;-82
2023/07/13 03:05:13;;;;;;;1.80;1.30;;;;;;;;;;5093077;28;20064;-81
2023/07/13 03:07:40;;;;;;;1.23;1.13;;;;;;;;;;5093467;28;20056;-82
2023/07/13 03:10:08;;;;;;;1.02;0.98;;;;;;;;;;5094337;28;20083;-82
2023/07/13 03:12:35;;;;;;;4.05;1.10;;;;;;;;;;5092707;28;20125;-82
2023/07/13 03:15:02;;;;;;;0.85;0.85;;;;;;;;;;5092722;28;20059;-82
2023/07/13 03:17:29;;;;;;;1.20;0.98;;;;;;;;;;5093001;28;20048;-83
2023/07/13 03:19:57;;;;;;;3.78;1.20;;;;;;;;;;5094477;28;20112;-82
2023/07/13 03:22:24;;;;;;;1.58;1.13;;;;;;;;;;5094087;28;20504;-81
2023/07/13 03:24:51;;;;;;;1.52;1.35;;;;;;;;;;5092859;28;20054;-81
2023/07/13 03:27:18;;;;;;;4.05;1.10;;;;;;;;;;5092758;28;20055;-81
2023/07/13 03:29:46;;;;;;;2.15;1.00;;;;;;;;;;5093990;28;20087;-81
2023/07/13 03:32:13;;;;;;;1.15;1.00;;;;;;;;;;5093798;28;20044;-82
2023/07/13 03:34:40;;;;;;;4.55;1.70;;;;;;;;;;5092724;28;20093;-81
2023/07/13 03:37:07;;;;;;;6.95;1.60;;;;;;;;;;5094053;28;20052;-81
2023/07/13 03:39:35;;;;;;;2.20;1.20;;;;;;;;;;5092599;28;20467;-82
2023/07/13 03:42:02;;;;;;;2.95;1.00;;;;;;;;;;5093711;28;20056;-82
2023/07/13 03:44:29;;;;;;;7.03;1.50;;;;;;;;;;5093603;28;20051;-82
2023/07/13 03:46:56;;;;;;;1.55;1.40;;;;;;;;;;5093939;28;20043;-82
2023/07/13 03:49:24;;;;;;;1.42;1.25;;;;;;;;;;5092737;28;20414;-82
2023/07/13 03:51:51;;;;;;;1.52;1.27;;;;;;;;;;5092435;28;20487;-82
2023/07/13 03:54:20;;;;;;;1.40;1.30;;;;;;;;;;5092471;28;20048;-82
2023/07/13 03:56:48;;;;;;;1.95;1.33;;;;;;;;;;5092284;28;20081;-82
2023/07/13 03:59:15;;;;;;;2.28;1.35;;;;;;;;;;5092245;28;20048;-82
2023/07/13 04:01:43;;;;;;;3.78;1.50;;;;;;;;;;5092256;28;20101;-82
2023/07/13 04:04:11;;;;;;;1.42;1.33;;;;;;;;;;5093198;28;20048;-82
2023/07/13 04:06:38;;;;;;;4.45;1.17;;;;;;;;;;5093289;28;20059;-82
2023/07/13 04:09:05;;;;;;;14.90;2.42;;;;;;;;;;5093318;28;20546;-82
2023/07/13 04:11:33;;;;;;;12.38;1.73;;;;;;;;;;5092971;28;20459;-83
2023/07/13 04:14:01;;;;;;;12.18;2.00;;;;;;;;;;5092125;28;20048;-82
2023/07/13 04:16:28;;;;;;;4.40;1.45;;;;;;;;;;5093324;28;20056;-82
2023/07/13 04:18:59;;;;;;;3.58;1.33;;;;;;;;;;5091863;28;20047;-81
2023/07/13 04:21:28;;;;;;;2.95;1.17;;;;;;;;;;5091704;28;20052;-82
2023/07/13 04:23:55;;;;;;;13.77;2.08;;;;;;;;;;5091924;28;20074;-82
2023/07/13 04:26:23;;;;;;;3.40;1.55;;;;;;;;;;5091858;28;20047;-82
2023/07/13 04:28:51;;;;;;;4.78;1.90;;;;;;;;;;5091722;28;20400;-82
2023/07/13 04:31:18;;;;;;;3.33;1.67;;;;;;;;;;5091652;28;20083;-82
2023/07/13 04:33:45;;;;;;;3.45;2.17;;;;;;;;;;5091323;28;20048;-82
2023/07/13 04:36:15;;;;;;;2.03;1.30;;;;;;;;;;5091618;28;20087;-82
2023/07/13 04:38:42;;;;;;;7.05;1.80;;;;;;;;;;5091717;28;20087;-82
2023/07/13 04:41:10;;;;;;;4.93;1.75;;;;;;;;;;5091217;28;20465;-82
2023/07/13 04:43:37;;;;;;;1.50;1.25;;;;;;;;;;5091343;28;20043;-81
2023/07/13 04:46:09;;;;;;;8.05;2.00;;;;;;;;;;5091387;28;20074;-81
2023/07/13 04:48:37;;;;;;;6.00;2.07;;;;;;;;;;5091457;28;20044;-82
2023/07/13 04:51:04;;;;;;;14.98;2.08;;;;;;;;;;5091551;28;20094;-81
2023/07/13 04:53:32;;;;;;;4.72;1.80;;;;;;;;;;5091781;28;20203;-81
2023/07/13 04:55:59;;;;;;;6.53;2.00;;;;;;;;;;5091912;28;20412;-82
2023/07/13 04:58:27;;;;;;;2.78;1.50;;;;;;;;;;5092731;28;20052;-82
2023/07/13 05:00:59;;;;;;;5.15;1.45;;;;;;;;;;5091085;28;20521;-81
2023/07/13 05:03:27;;;;;;;4.23;1.63;;;;;;;;;;5091440;28;20515;-82
2023/07/13 05:05:55;;;;;;;1.60;1.50;;;;;;;;;;5091419;28;20097;-82
2023/07/13 05:08:22;;;;;;;3.17;1.60;;;;;;;;;;5091391;28;20054;-82
2023/07/13 05:10:50;;;;;;;2.38;1.15;;;;;;;;;;5091368;28;20075;-82
2023/07/13 05:13:17;;;;;;;4.35;1.15;;;;;;;;;;5091224;28;20063;-82
2023/07/13 05:15:45;;;;;;;1.75;1.48;;;;;;;;;;5090973;28;20465;-82
2023/07/13 05:18:12;;;;;;;4.05;1.10;;;;;;;;;;5091106;28;20127;-83
2023/07/13 05:20:39;;;;;;;1.35;1.20;;;;;;;;;;5092315;28;20087;-82
2023/07/13 05:23:07;;;;;;;7.47;1.20;;;;;;;;;;5092251;28;20044;-82
2023/07/13 05:25:34;;;;;;;1.27;1.02;;;;;;;;;;5091268;28;20409;-82
2023/07/13 05:28:01;;;;;;;6.82;1.30;;;;;;;;;;5091380;28;20090;-82
2023/07/13 05:30:28;;;;;;;1.98;1.00;;;;;;;;;;5091209;28;20056;-82
2023/07/13 05:32:56;;;;;;;11.35;1.98;;;;;;;;;;5092475;28;20055;-82
2023/07/13 05:35:23;;;;;;;9.90;2.20;;;;;;;;;;5092174;28;20055;-81
2023/07/13 05:37:50;;;;;;;3.72;1.27;;;;;;;;;;5091166;28;20087;-82
2023/07/13 05:40:17;;;;;;;3.60;1.23;;;;;;;;;;5092205;28;20121;-82
2023/07/13 05:42:45;;;;;;;13.50;2.25;;;;;;;;;;5091915;28;20439;-82
2023/07/13 05:45:12;;;;;;;15.13;2.60;;;;;;;;;;5092305;28;20070;-83
2023/07/13 05:47:39;;;;;;;7.20;1.80;;;;;;;;;;5092514;28;20082;-83
2023/07/13 05:50:07;;;;;;;7.13;1.50;;;;;;;;;;5092399;28;20504;-83
2023/07/13 05:52:34;;;;;;;8.60;1.45;;;;;;;;;;5091075;28;20052;-82
2023/07/13 05:55:02;;;;;;;7.28;1.88;;;;;;;;;;5091037;28;20084;-82
2023/07/13 05:57:31;;;;;;;10.85;1.70;;;;;;;;;;5090955;28;20393;-82
2023/07/13 05:59:58;;;;;;;7.60;1.52;;;;;;;;;;5091050;28;20044;-83
2023/07/13 06:02:26;;;;;;;7.85;2.17;;;;;;;;;;5090962;28;20059;-82
2023/07/13 06:04:53;;;;;;;8.15;1.38;;;;;;;;;;5091365;28;20048;-82
2023/07/13 06:07:21;;;;;;;2.78;0.98;;;;;;;;;;5091041;28;20052;-82
2023/07/13 06:09:48;;;;;;;1.70;1.05;;;;;;;;;;5092042;28;20135;-82
2023/07/13 06:12:15;;;;;;;3.90;1.30;;;;;;;;;;5090723;28;20040;-83
2023/07/13 06:14:42;;;;;;;4.45;1.27;;;;;;;;;;5090838;28;20092;-82
2023/07/13 06:17:10;;;;;;;3.05;1.10;;;;;;;;;;5091959;28;20388;-82
2023/07/13 06:19:37;;;;;;;4.07;1.10;;;;;;;;;;5090817;28;20044;-82
2023/07/13 06:22:05;;;;;;;3.60;1.20;;;;;;;;;;5090045;28;20052;-82
2023/07/13 06:24:32;;;;;;;1.90;0.90;;;;;;;;;;5090539;28;20101;-81
2023/07/13 06:27:00;;;;;;;2.80;1.00;;;;;;;;;;5091938;28;20105;-81
2023/07/13 06:29:27;;;;;;;3.92;0.90;;;;;;;;;;5094454;28;20087;-83
2023/07/13 06:31:55;;;;;;;5.38;0.95;;;;;;;;;;5094302;28;20094;-82
2023/07/13 06:34:22;;;;;;;1.73;0.95;;;;;;;;;;5094211;28;20492;-82
2023/07/13 06:36:50;;;;;;;2.70;1.00;;;;;;;;;;5094090;28;20549;-82
2023/07/13 06:39:17;;;;;;;3.28;1.23;;;;;;;;;;5095262;28;20099;-82
2023/07/13 06:41:44;;;;;;;3.22;0.93;;;;;;;;;;5094913;28;20048;-82
2023/07/13 06:44:12;;;;;;;1.00;0.80;;;;;;;;;;5095360;28;20102;-83
2023/07/13 06:46:39;;;;;;;4.07;1.20;;;;;;;;;;5094022;28;20484;-83
2023/07/13 06:49:06;;;;;;;6.25;1.40;;;;;;;;;;5094880;28;20105;-81
2023/07/13 06:51:33;;;;;;;5.22;1.10;;;;;;;;;;5093336;28;20075;-82
2023/07/13 06:54:00;;;;;;;4.32;0.80;;;;;;;;;;5093353;28;20048;-81
2023/07/13 06:56:28;;;;;;;2.88;0.85;;;;;;;;;;5093811;28;20109;-81
2023/07/13 06:58:55;;;;;;;3.33;0.85;;;;;;;;;;5095170;28;20044;-82
2023/07/13 07:01:22;;;;;;;3.13;1.10;;;;;;;;;;5094508;28;20480;-82
2023/07/13 07:03:49;;;;;;;10.30;1.30;;;;;;;;;;5093747;28;20076;-82
2023/07/13 07:06:18;;;;;;;3.63;1.10;;;;;;;;;;5093297;28;20139;-81
2023/07/13 07:08:46;;;;;;;1.90;0.77;;;;;;;;;;5094030;28;20113;-83
2023/07/13 07:11:14;;;;;;;1.33;0.80;;;;;;;;;;5094327;28;20436;-82
2023/07/13 07:13:41;;;;;;;2.20;0.80;;;;;;;;;;5094507;28;20090;-83
2023/07/13 07:16:09;;;;;;;5.05;1.00;;;;;;;;;;5094560;28;20056;-82
2023/07/13 07:18:39;;;;;;;5.28;1.00;;;;;;;;;;5093936;28;20048;-83
2023/07/13 07:21:07;;;;;;;5.32;1.42;;;;;;;;;;5092983;28;20051;-83
2023/07/13 07:23:35;;;;;;;7.82;1.20;;;;;;;;;;5094056;28;20059;-81
2023/07/13 07:26:03;;;;;;;6.00;1.45;;;;;;;;;;5094537;28;20075;-84
2023/07/13 07:28:30;;;;;;;3.70;1.27;;;;;;;;;;5092986;28;20473;-82
2023/07/13 07:31:09;;;;;;;1.00;0.60;;;;;;;;;;5093810;28;20066;-83
2023/07/13 07:33:39;;;;;;;3.58;0.95;;;;;;;;;;5093366;28;20129;-84
2023/07/13 07:36:06;;;;;;;3.90;1.00;;;;;;;;;;5093106;28;20158;-82
2023/07/13 07:38:37;;;;;;;5.13;0.98;;;;;;;;;;5093472;28;20052;-82
2023/07/13 07:41:05;;;;;;;3.00;0.88;;;;;;;;;;5092618;28;20453;-83
2023/07/13 07:43:35;;;;;;;3.30;1.40;;;;;;;;;;5092955;28;20059;-83
2023/07/13 07:46:02;;;;;;;5.32;1.17;;;;;;;;;;5092947;28;20047;-81
2023/07/13 07:48:30;;;;;;;2.13;0.93;;;;;;;;;;5093908;28;20044;-81
2023/07/13 07:50:57;;;;;;;3.30;0.77;;;;;;;;;;5092867;28;20044;-81
2023/07/13 07:53:25;;;;;;;3.33;0.80;;;;;;;;;;5092535;28;20052;-81
2023/07/13 07:55:53;;;;;;;2.40;0.70;;;;;;;;;;5092681;28;20048;-81
2023/07/13 07:58:23;;;;;;;3.20;0.70;;;;;;;;;;5092253;28;20499;-81
2023/07/13 08:00:53;;;;;;;1.92;0.90;;;;;;;;;;5093697;28;20083;-81
2023/07/13 08:03:23;;;;;;;3.72;1.30;;;;;;;;;;5092975;28;20052;-82
2023/07/13 08:05:54;;;;;;;3.70;1.02;;;;;;;;;;5093969;28;20071;-80
2023/07/13 08:08:24;;;;;;;4.35;0.90;;;;;;;;;;5093653;28;20073;-82
2023/07/13 08:10:52;;;;;;;2.95;0.90;;;;;;;;;;5091994;28;20052;-81
2023/07/13 08:13:24;;;;;;;4.50;1.00;;;;;;;;;;5092153;28;20044;-81
2023/07/13 08:15:51;;;;;;;3.70;0.88;;;;;;;;;;5093490;28;20139;-80
2023/07/13 08:18:19;;;;;;;6.13;0.55;;;;;;;;;;5092274;28;20051;-82
2023/07/13 08:20:46;;;;;;;3.03;0.52;;;;;;;;;;5092085;28;20052;-81
2023/07/13 08:23:13;;;;;;;1.67;0.80;;;;;;;;;;5093249;28;20052;-83
2023/07/13 08:25:40;;;;;;;3.33;0.70;;;;;;;;;;5093356;28;20044;-84
2023/07/13 08:28:07;;;;;;;3.35;0.80;;;;;;;;;;5091529;28;20090;-83
2023/07/13 08:30:36;;;;;;;2.45;0.80;;;;;;;;;;5091347;28;20090;-84
2023/07/13 08:33:03;;;;;;;2.47;1.00;;;;;;;;;;5091839;28;20044;-82
2023/07/13 08:35:31;;;;;;;1.88;0.60;;;;;;;;;;5093037;28;20393;-82
2023/07/13 08:38:00;;;;;;;2.45;0.65;;;;;;;;;;5092059;28;20475;-82
2023/07/13 08:40:28;;;;;;;2.05;0.60;;;;;;;;;;5091669;28;20078;-82
2023/07/13 08:42:57;;;;;;;6.28;0.80;;;;;;;;;;5091958;28;20048;-81
2023/07/13 08:45:34;;;;;;;6.85;0.70;;;;;;;;;;5091651;28;20531;-82
2023/07/13 08:48:05;;;;;;;1.40;0.50;;;;;;;;;;5091765;28;20047;-82
2023/07/13 08:50:35;;;;;;;2.60;0.60;;;;;;;;;;5092035;28;20054;-82
2023/07/13 08:53:20;;;;;;;5.93;0.73;;;;;;;;;;5092870;28;20044;-81
2023/07/13 08:55:48;;;;;;;4.18;0.55;;;;;;;;;;5091898;28;20056;-81
2023/07/13 08:58:16;;;;;;;0.50;0.40;;;;;;;;;;5091475;28;20488;-82
2023/07/13 09:01:13;;;;;;;1.90;0.80;;;;;;;;;;5092684;28;20044;-81
2023/07/13 09:03:43;;;;;;;3.03;0.60;;;;;;;;;;5083152;28;20048;-81
2023/07/13 09:06:11;;;;;;;4.95;0.80;;;;;;;;;;5091430;28;20048;-81
2023/07/13 09:09:00;;;;;;;8.52;1.50;;;;;;;;;;5091538;28;20074;-82
2023/07/13 09:11:35;;;;;;;5.60;1.00;;;;;;;;;;5091364;28;20044;-82
2023/07/13 09:14:06;;;;;;;1.95;0.90;;;;;;;;;;5091810;28;20044;-81
2023/07/13 09:16:34;;;;;;;2.35;0.77;;;;;;;;;;5091477;28;20106;-82
2023/07/13 09:19:04;;;;;;;3.00;0.70;;;;;;;;;;5091428;28;20109;-82
2023/07/13 09:21:33;;;;;;;1.90;0.68;;;;;;;;;;5092323;28;20048;-82
2023/07/13 09:24:04;;;;;;;1.90;0.95;;;;;;;;;;5091500;28;20496;-82
2023/07/13 09:26:33;;;;;;;2.38;0.80;;;;;;;;;;5092345;28;20109;-82
2023/07/13 09:29:05;;;;;;;1.42;0.50;;;;;;;;;;5091348;28;20504;-82
2023/07/13 09:31:34;;;;;;;1.80;1.00;;;;;;;;;;5091185;28;20044;-82
2023/07/13 09:34:02;;;;;;;6.70;0.95;;;;;;;;;;5091165;28;20048;-83
2023/07/13 09:36:31;;;;;;;1.88;0.80;;;;;;;;;;5091146;28;20549;-83
2023/07/13 09:39:15;;;;;;;7.47;0.95;;;;;;;;;;5091105;28;20056;-83
2023/07/13 09:42:01;;;;;;;1.90;1.05;;;;;;;;;;5090789;28;20048;-82
2023/07/13 09:44:35;;;;;;;1.70;0.65;;;;;;;;;;5091134;28;20088;-81
2023/07/13 09:47:02;;;;;;;6.70;0.80;;;;;;;;;;5092470;28;20048;-82
2023/07/13 09:49:39;;;;;;;1.55;0.60;;;;;;;;;;5091092;28;20044;-83
2023/07/13 09:52:11;;;;;;;1.27;0.70;;;;;;;;;;5092323;28;20098;-85
2023/07/13 09:54:38;;;;;;;1.83;0.40;;;;;;;;;;5092182;28;20554;-84
2023/07/13 09:57:19;;;;;;;2.15;0.60;;;;;;;;;;5090951;28;20487;-82
2023/07/13 09:59:47;;;;;;;1.85;0.38;;;;;;;;;;5092328;28;20087;-83
2023/07/13 10:02:24;;;;;;;3.60;0.73;;;;;;;;;;5093686;28;20434;-82
2023/07/13 10:05:05;;;;;;;1.27;0.50;;;;;;;;;;5094943;28;20044;-83
2023/07/13 10:07:32;;;;;;;0.60;0.38;;;;;;;;;;5094932;28;20404;-82
2023/07/13 10:10:02;;;;;;;3.83;0.43;;;;;;;;;;5094701;28;20396;-83
2023/07/13 10:12:31;;;;;;;4.78;0.50;;;;;;;;;;5094786;28;20407;-81
2023/07/13 10:15:00;;;;;;;0.57;0.20;;;;;;;;;;5094663;28;20087;-82
2023/07/13 10:17:44;;;;;;;6.65;0.70;;;;;;;;;;5094625;28;20040;-81
2023/07/13 10:20:14;;;;;;;1.10;0.38;;;;;;;;;;5094511;28;20052;-84
2023/07/13 10:23:02;;;;;;;1.50;0.30;;;;;;;;;;5095619;28;20048;-83
2023/07/13 10:25:34;;;;;;;6.53;1.05;;;;;;;;;;5094344;28;20698;-82
2023/07/13 10:28:16;;;;;;;1.85;0.50;;;;;;;;;;5094261;28;20408;-82
2023/07/13 10:30:46;;;;;;;1.23;0.30;;;;;;;;;;5092537;28;20040;-82
2023/07/13 10:33:14;;;;;;;0.73;0.30;;;;;;;;;;5094457;28;20121;-82
2023/07/13 10:35:43;;;;;;;0.40;0.30;;;;;;;;;;5094382;28;20127;-81
2023/07/13 10:38:12;;;;;;;0.47;0.30;;;;;;;;;;5094187;28;20044;-83
2023/07/13 10:40:44;;;;;;;1.48;0.25;;;;;;;;;;5094041;28;20048;-83
2023/07/13 10:43:17;;;;;;;3.05;0.40;;;;;;;;;;5094094;28;20058;-84
2023/07/13 10:45:44;;;;;;;;;;;;;;;;;;5095926;28;20052;-84
2023/07/13 10:48:14;;;;;;;1.48;0.22;;;;;;;;;;5095309;28;19963;-83
2023/07/13 10:50:45;;;;;;;9.65;1.25;;;;;;;;;;5094122;28;20054;-83
2023/07/13 10:53:19;;;;;;;0.38;0.28;;;;;;;;;;5094225;28;20052;-83
2023/07/13 10:55:50;;;;;;;1.33;0.30;;;;;;;;;;5094259;28;20052;-83
2023/07/13 10:58:23;;;;;;;0.52;0.20;;;;;;;;;;5094077;28;20047;-83
2023/07/13 11:00:56;;;;;;;12.43;0.57;;;;;;;;;;5094025;28;20074;-88
2023/07/13 11:03:24;;;;;;;5.30;0.30;;;;;;;;;;5094077;28;20048;-84
2023/07/13 11:06:04;;;;;;;8.23;0.80;;;;;;;;;;5094875;28;20047;-86
2023/07/13 11:08:31;;;;;;;3.95;0.47;;;;;;;;;;5093961;28;20055;-84
2023/07/13 11:10:59;;;;;;;1.40;0.47;;;;;;;;;;5094948;28;20062;-84
2023/07/13 11:13:35;;;;;;;2.40;0.20;;;;;;;;;;5093811;28;20084;-83
2023/07/13 11:16:13;;;;;;;1.67;0.30;;;;;;;;;;5093569;28;20059;-84
2023/07/13 11:18:42;;;;;;;1.00;0.20;;;;;;;;;;5093933;28;20044;-82
2023/07/13 11:21:19;;;;;;;4.65;0.32;;;;;;;;;;5093319;28;20048;-82
2023/07/13 11:24:03;;;;;;;3.67;0.20;;;;;;;;;;5093877;28;20131;-85
2023/07/13 11:26:50;;;;;;;0.40;0.30;;;;;;;;;;5094445;28;20492;-83
2023/07/13 11:29:26;;;;;;;0.50;0.20;;;;;;;;;;5093297;28;20070;-83
2023/07/13 11:31:54;;;;;;;2.70;0.32;;;;;;;;;;5093311;28;20075;-84
2023/07/13 11:34:30;;;;;;;4.45;0.47;;;;;;;;;;5094297;28;20044;-84
2023/07/13 11:36:59;;;;;;;0.47;0.22;;;;;;;;;;5093315;28;20048;-83
2023/07/13 11:39:30;;;;;;;0.20;0.20;;;;;;;;;;5094392;28;20546;-83
2023/07/13 11:42:00;;;;;;;4.43;0.50;;;;;;;;;;5094243;28;20082;-84
2023/07/13 11:44:29;;;;;;;1.73;0.50;;;;;;;;;;5093134;28;20480;-82
2023/07/13 11:47:00;;;;;;;2.47;0.30;;;;;;;;;;5092884;28;20484;-83
2023/07/13 11:49:30;;;;;;;1.75;0.25;;;;;;;;;;5092993;28;20126;-83
2023/07/13 11:52:00;;;;;;;0.93;0.50;;;;;;;;;;5092850;28;20499;-82
2023/07/13 11:54:29;;;;;;;1.75;0.50;;;;;;;;;;5092947;28;20040;-83
2023/07/13 11:57:00;;;;;;;0.20;0.20;;;;;;;;;;5093041;28;20048;-85
2023/07/13 11:59:28;;;;;;;1.58;0.20;;;;;;;;;;5093023;28;20067;-83
2023/07/13 12:01:55;;;;;;;0.40;0.20;;;;;;;;;;5092615;28;20076;-85
2023/07/13 12:04:27;;;;;;;0.57;0.25;;;;;;;;;;5093781;28;20044;-84
2023/07/13 12:06:56;;;;;;;0.52;0.30;;;;;;;;;;5093997;28;20082;-82
2023/07/13 12:09:25;;;;;;;3.13;0.40;;;;;;;;;;5092701;28;20071;-83
2023/07/13 12:11:52;;;;;;;0.20;0.20;;;;;;;;;;5093686;28;20048;-86
2023/07/13 12:14:20;;;;;;;1.02;0.20;;;;;;;;;;5093503;28;20515;-84
2023/07/13 12:16:48;;;;;;;2.63;0.30;;;;;;;;;;5093685;28;20497;-85
2023/07/13 12:19:23;;;;;;;3.22;0.43;;;;;;;;;;5095327;28;20055;-84
2023/07/13 12:21:53;;;;;;;0.68;0.20;;;;;;;;;;5094232;28;20066;-84
2023/07/13 12:24:22;;;;;;;1.98;0.30;;;;;;;;;;5093119;28;20059;-83
2023/07/13 12:27:00;;;;;;;6.63;0.60;;;;;;;;;;5092307;28;20095;-92
2023/07/13 12:29:28;;;;;;;0.45;0.45;;;;;;;;;;5092281;28;20105;-85
2023/07/13 12:31:55;;;;;;;2.67;0.47;;;;;;;;;;5093584;28;20093;-83
2023/07/13 12:34:24;;;;;;;0.35;0.32;;;;;;;;;;5092531;28;20052;-84
2023/07/13 12:36:55;;;;;;;1.55;0.40;;;;;;;;;;5092428;28;20101;-84
2023/07/13 12:39:25;;;;;;;25.02;2.22;;;;;;;;;;5092063;28;20079;-84
2023/07/13 12:41:53;;;;;;;2.22;0.60;;;;;;;;;;5092287;28;20055;-84
2023/07/13 12:44:28;;;;;;;4.22;0.60;;;;;;;;;;5091889;28;20454;-85
2023/07/13 12:47:11;;;;;;;3.33;0.85;;;;;;;;;;5092275;28;20098;-84
2023/07/13 12:49:43;;;;;;;0.60;0.40;;;;;;;;;;5092273;28;20433;-83
2023/07/13 12:52:15;;;;;;;2.15;0.52;;;;;;;;;;5093080;28;20048;-85
2023/07/13 12:54:52;;;;;;;5.90;1.08;;;;;;;;;;5093363;28;20044;-87
2023/07/13 12:57:32;;;;;;;2.53;0.80;;;;;;;;;;5092022;28;20050;-84
2023/07/13 13:00:00;;;;;;;8.93;0.93;;;;;;;;;;5092917;28;20488;-84
2023/07/13 13:02:34;;;;;;;2.92;0.50;;;;;;;;;;5092777;28;20044;-84
2023/07/13 13:05:04;;;;;;;0.50;0.50;;;;;;;;;;5092961;28;20044;-84
2023/07/13 13:07:31;;;;;;;4.93;0.73;;;;;;;;;;5091956;28;20441;-84
2023/07/13 13:09:58;;;;;;;1.35;0.70;;;;;;;;;;5091641;28;20048;-83
2023/07/13 13:12:26;;;;;;;4.13;0.60;;;;;;;;;;5091594;28;20454;-84
2023/07/13 13:14:53;;;;;;;2.20;0.60;;;;;;;;;;5091843;28;20085;-83
2023/07/13 13:17:27;;;;;;;1.25;0.60;;;;;;;;;;5092749;28;20072;-83
2023/07/13 13:19:54;;;;;;;2.67;0.93;;;;;;;;;;5091734;28;20055;-83
2023/07/13 13:22:22;;;;;;;1.33;0.32;;;;;;;;;;5091551;28;20469;-84
2023/07/13 13:24:49;;;;;;;3.50;1.00;;;;;;;;;;5092726;28;20052;-81
2023/07/13 13:27:17;;;;;;;2.15;0.50;;;;;;;;;;5091336;28;20083;-83
2023/07/13 13:29:45;;;;;;;3.40;0.70;;;;;;;;;;5092586;28;20527;-83
2023/07/13 13:32:13;;;;;;;54.47;3.13;;;;;;;;;;5092470;28;20086;-80
2023/07/13 13:34:40;;;;;;;7.53;0.60;;;;;;;;;;5091510;28;20098;-83
2023/07/13 13:37:16;;;;;;;5.60;0.70;;;;;;;;;;5094089;28;20083;-82
2023/07/13 13:39:44;;;;;;;3.17;0.40;;;;;;;;;;5095510;28;20411;-83
2023/07/13 13:42:28;;;;;;;0.50;0.50;;;;;;;;;;5095103;28;20055;-85
2023/07/13 13:44:56;;;;;;;4.47;0.40;;;;;;;;;;5096851;28;20097;-82
2023/07/13 13:47:32;;;;;;;4.38;0.50;;;;;;;;;;5095180;28;20139;-83
2023/07/13 13:50:00;;;;;;;1.45;0.50;;;;;;;;;;5096606;28;20484;-83
2023/07/13 13:52:27;;;;;;;2.22;0.70;;;;;;;;;;5095028;28;20117;-83
2023/07/13 13:54:55;;;;;;;1.55;0.50;;;;;;;;;;5096307;28;20052;-82
2023/07/13 13:57:25;;;;;;;9.07;0.90;;;;;;;;;;5095450;28;20563;-84
2023/07/13 13:59:53;;;;;;;3.53;0.60;;;;;;;;;;5095156;28;20101;-82
2023/07/13 14:02:25;;;;;;;1.92;0.50;;;;;;;;;;5094712;28;20494;-83
2023/07/13 14:05:01;;;;;;;1.95;0.40;;;;;;;;;;5096219;28;20111;-82
2023/07/13 14:07:29;;;;;;;0.57;0.30;;;;;;;;;;5094894;28;20052;-82
2023/07/13 14:09:58;;;;;;;1.73;0.45;;;;;;;;;;5094972;28;20052;-82
2023/07/13 14:12:28;;;;;;;5.68;0.60;;;;;;;;;;5094591;28;20051;-83
2023/07/13 14:14:58;;;;;;;2.67;0.47;;;;;;;;;;5095984;28;20044;-83
2023/07/13 14:17:27;;;;;;;0.70;0.40;;;;;;;;;;5094532;28;20093;-83
2023/07/13 14:19:57;;;;;;;2.53;0.47;;;;;;;;;;5095493;28;20265;-83
2023/07/13 14:22:27;;;;;;;1.05;0.50;;;;;;;;;;5094344;28;20449;-83
2023/07/13 14:24:54;;;;;;;2.78;0.40;;;;;;;;;;5095941;28;20132;-84
2023/07/13 14:27:22;;;;;;;1.02;0.60;;;;;;;;;;5094316;28;20052;-83
2023/07/13 14:29:50;;;;;;;1.52;0.30;;;;;;;;;;5094400;28;20051;-83
2023/07/13 14:32:17;;;;;;;3.88;0.40;;;;;;;;;;5093950;28;20044;-81
2023/07/13 14:34:45;;;;;;;1.17;0.50;;;;;;;;;;5094440;28;20067;-82
2023/07/13 14:37:14;;;;;;;2.45;0.43;;;;;;;;;;5095341;28;20044;-81
2023/07/13 14:39:43;;;;;;;2.80;0.60;;;;;;;;;;5095449;28;20430;-83
2023/07/13 14:42:11;;;;;;;6.28;0.70;;;;;;;;;;5094866;28;20056;-83
2023/07/13 14:44:39;;;;;;;1.98;0.40;;;;;;;;;;5093963;28;20101;-83
2023/07/13 14:47:07;;;;;;;0.90;0.50;;;;;;;;;;5095078;28;20052;-83
2023/07/13 14:49:36;;;;;;;0.40;0.30;;;;;;;;;;5095278;28;20143;-82
2023/07/13 14:52:11;;;;;;;1.48;0.32;;;;;;;;;;5093657;28;20504;-82
2023/07/13 14:54:41;;;;;;;0.95;0.40;;;;;;;;;;5095132;28;20056;-83